createdAt,value
2017-10-11T00:02:07.531Z,98.60
2017-10-11T00:04:36.949Z,98.50
2017-10-11T00:07:07.009Z,98.70
2017-10-11T00:09:36.299Z,98.70
2017-10-11T00:12:05.634Z,98.80
2017-10-11T00:14:34.886Z,98.90
2017-10-11T00:17:04.167Z,99.10
2017-10-11T00:19:34.289Z,99.00
2017-10-11T00:22:03.549Z,99.00
2017-10-11T00:24:32.822Z,98.80
2017-10-11T00:27:02.111Z,98.70
2017-10-11T00:29:31.987Z,98.80
2017-10-11T00:32:01.246Z,98.90
2017-10-11T00:34:30.627Z,98.60
2017-10-11T00:36:59.913Z,98.70
2017-10-11T00:39:29.312Z,98.80
2017-10-11T00:41:58.558Z,98.70
2017-10-11T00:44:27.826Z,98.80
2017-10-11T00:46:57.134Z,98.90
2017-10-11T00:49:27.162Z,99.40
2017-10-11T00:51:56.414Z,99.40
2017-10-11T00:54:25.654Z,99.50
2017-10-11T00:56:55.729Z,99.40
2017-10-11T00:59:25.778Z,99.40
2017-10-11T01:01:55.034Z,99.30
2017-10-11T01:04:24.474Z,99.20
2017-10-11T01:06:54.590Z,99.30
2017-10-11T01:09:23.895Z,99.30
2017-10-11T01:11:53.916Z,99.20
2017-10-11T01:14:23.314Z,99.20
2017-10-11T01:16:52.618Z,99.30
2017-10-11T01:19:22.819Z,99.80
2017-10-11T01:21:52.114Z,99.60
2017-10-11T01:24:21.349Z,99.50
2017-10-11T01:26:51.361Z,99.40
2017-10-11T01:29:20.633Z,99.40
2017-10-11T01:31:49.879Z,99.50
2017-10-11T01:34:19.914Z,99.30
2017-10-11T01:36:49.212Z,99.30
2017-10-11T01:39:18.525Z,99.40
2017-10-11T01:41:47.767Z,99.30
2017-10-11T01:44:17.849Z,99.40
2017-10-11T01:46:47.300Z,99.20
2017-10-11T01:49:17.321Z,99.40
2017-10-11T01:51:46.587Z,99.10
2017-10-11T01:54:15.862Z,99.10
2017-10-11T01:56:45.190Z,99.10
2017-10-11T01:59:14.463Z,98.90
2017-10-11T02:01:43.725Z,98.80
2017-10-11T02:04:12.997Z,98.80
2017-10-11T02:06:42.238Z,98.80
2017-10-11T02:09:11.679Z,98.90
2017-10-11T02:11:41.658Z,99.00
2017-10-11T02:14:10.949Z,99.10
2017-10-11T02:16:40.218Z,99.20
2017-10-11T02:19:09.478Z,99.70
2017-10-11T02:21:38.751Z,99.70
2017-10-11T02:24:08.051Z,99.60
2017-10-11T02:26:37.331Z,99.70
2017-10-11T02:29:06.654Z,99.60
2017-10-11T02:31:37.401Z,99.60
2017-10-11T02:34:07.541Z,99.50
2017-10-11T02:36:36.809Z,99.50
2017-10-11T02:39:06.663Z,99.50
2017-10-11T02:41:35.930Z,99.40
2017-10-11T02:44:05.280Z,99.30
2017-10-11T02:46:34.538Z,99.30
2017-10-11T02:49:03.876Z,99.30
2017-10-11T02:51:33.643Z,99.30
2017-10-11T02:54:02.972Z,99.30
2017-10-11T02:56:32.450Z,99.10
2017-10-11T02:59:01.720Z,99.10
2017-10-11T03:01:30.973Z,99.10
2017-10-11T03:04:00.332Z,99.10
2017-10-11T03:06:29.579Z,99.00
2017-10-11T03:08:58.968Z,99.00
2017-10-11T03:11:28.999Z,99.00
2017-10-11T03:13:58.263Z,99.00
2017-10-11T03:16:27.527Z,98.90
2017-10-11T03:18:56.792Z,98.90
2017-10-11T03:21:26.832Z,99.20
2017-10-11T03:23:56.075Z,99.00
2017-10-11T03:26:25.342Z,98.90
2017-10-11T03:28:54.607Z,98.90
2017-10-11T03:31:24.735Z,98.90
2017-10-11T03:33:54.842Z,99.80
2017-10-11T03:36:24.121Z,99.50
2017-10-11T03:38:53.358Z,99.40
2017-10-11T03:41:22.606Z,99.40
2017-10-11T03:43:51.886Z,99.50
2017-10-11T03:46:21.346Z,99.70
2017-10-11T03:48:50.666Z,99.90
2017-10-11T03:51:19.898Z,99.90
2017-10-11T03:53:49.145Z,99.90
2017-10-11T03:56:18.442Z,99.90
2017-10-11T03:58:47.749Z,99.90
2017-10-11T04:01:17.013Z,99.90
2017-10-11T04:03:46.281Z,99.70
2017-10-11T04:06:15.548Z,99.70
2017-10-11T04:08:44.805Z,99.60
2017-10-11T04:11:14.086Z,99.50
2017-10-11T04:13:43.467Z,99.50
2017-10-11T04:16:13.520Z,99.30
2017-10-11T04:18:42.787Z,99.30
2017-10-11T04:21:12.088Z,99.30
2017-10-11T04:23:41.338Z,99.20
2017-10-11T04:26:10.594Z,99.20
2017-10-11T04:28:40.627Z,98.90
2017-10-11T04:31:10.120Z,98.90
2017-10-11T04:33:39.376Z,99.00
2017-10-11T04:36:08.638Z,99.10
2017-10-11T04:38:37.906Z,99.20
2017-10-11T04:41:07.149Z,99.00
2017-10-11T04:43:36.645Z,98.90
2017-10-11T04:46:05.902Z,99.00
2017-10-11T04:48:35.171Z,99.00
2017-10-11T04:51:04.424Z,99.30
2017-10-11T04:53:33.720Z,99.00
2017-10-11T04:56:03.027Z,98.80
2017-10-11T04:58:33.042Z,98.60
2017-10-11T05:01:02.305Z,98.60
2017-10-11T05:03:31.567Z,98.60
2017-10-11T05:06:00.850Z,98.90
2017-10-11T05:08:30.087Z,98.90
2017-10-11T05:10:59.406Z,98.80
2017-10-11T05:13:28.674Z,98.80
2017-10-11T05:15:57.921Z,98.90
2017-10-11T05:18:27.286Z,99.10
2017-10-11T05:20:56.514Z,99.50
2017-10-11T05:23:25.910Z,99.60
2017-10-11T05:25:55.194Z,99.80
2017-10-11T05:28:24.570Z,99.70
2017-10-11T05:30:53.834Z,99.60
2017-10-11T05:33:23.090Z,99.50
2017-10-11T05:35:52.332Z,99.40
2017-10-11T05:38:21.618Z,99.40
2017-10-11T05:40:50.896Z,99.30
2017-10-11T05:43:21.757Z,99.10
2017-10-11T05:45:51.034Z,99.10
2017-10-11T05:48:20.273Z,99.00
2017-10-11T05:50:49.562Z,98.80
2017-10-11T05:53:19.036Z,98.60
2017-10-11T05:55:48.424Z,98.60
2017-10-11T05:58:17.990Z,98.60
2017-10-11T06:00:47.248Z,98.60
2017-10-11T06:03:16.518Z,98.60
2017-10-11T06:05:45.805Z,98.70
2017-10-11T06:08:16.580Z,98.70
2017-10-11T06:10:45.855Z,98.70
2017-10-11T06:13:15.255Z,98.60
2017-10-11T06:15:45.301Z,98.70
2017-10-11T06:18:14.704Z,98.30
2017-10-11T06:20:43.978Z,98.30
2017-10-11T06:23:14.002Z,98.30
2017-10-11T06:25:43.258Z,98.20
2017-10-11T06:28:12.524Z,98.30
2017-10-11T06:30:41.792Z,98.10
2017-10-11T06:33:11.137Z,98.00
2017-10-11T06:35:40.402Z,98.20
2017-10-11T06:38:10.659Z,98.70
2017-10-11T06:40:40.021Z,98.50
2017-10-11T06:43:09.262Z,98.40
2017-10-11T06:45:38.533Z,98.30
2017-10-11T06:48:07.777Z,98.10
2017-10-11T06:50:37.065Z,98.00
2017-10-11T06:53:06.306Z,98.00
2017-10-11T06:55:35.559Z,97.80
2017-10-11T06:58:04.849Z,97.60
2017-10-11T07:00:34.109Z,97.70
2017-10-11T07:03:03.559Z,97.70
2017-10-11T07:05:32.823Z,97.50
2017-10-11T07:08:02.130Z,97.50
2017-10-11T07:10:31.491Z,97.50
2017-10-11T07:13:00.814Z,97.50
2017-10-11T07:15:30.228Z,96.70
2017-10-11T07:18:00.157Z,96.70
2017-10-11T07:20:29.407Z,97.50
2017-10-11T07:22:58.673Z,95.90
2017-10-11T07:25:27.938Z,94.90
2017-10-11T07:27:57.209Z,94.80
2017-10-11T07:30:26.461Z,94.90
2017-10-11T07:32:55.739Z,94.20
2017-10-11T07:35:24.987Z,93.70
2017-10-11T07:37:54.257Z,93.60
2017-10-11T07:40:25.035Z,93.70
2017-10-11T07:42:54.286Z,93.70
2017-10-11T07:45:23.715Z,93.60
2017-10-11T07:47:53.733Z,93.40
2017-10-11T07:50:23.022Z,93.40
2017-10-11T07:52:52.319Z,93.30
2017-10-11T07:55:21.700Z,93.70
2017-10-11T07:57:51.162Z,93.40
2017-10-11T08:00:20.410Z,93.10
2017-10-11T08:02:50.051Z,93.30
2017-10-11T08:05:20.067Z,94.00
2017-10-11T08:07:49.362Z,94.00
2017-10-11T08:10:20.102Z,92.40
2017-10-11T08:12:49.462Z,92.40
2017-10-11T08:15:18.810Z,92.30
2017-10-11T08:17:48.835Z,91.40
2017-10-11T08:20:18.135Z,91.40
2017-10-11T08:22:47.386Z,91.00
2017-10-11T08:25:16.662Z,91.10
2017-10-11T08:27:45.902Z,91.30
2017-10-11T08:30:15.285Z,91.60
2017-10-11T08:32:44.809Z,90.80
2017-10-11T08:35:15.794Z,90.00
2017-10-11T08:37:45.050Z,90.30
2017-10-11T08:40:14.299Z,90.50
2017-10-11T08:42:44.320Z,91.10
2017-10-11T08:45:13.701Z,91.10
2017-10-11T08:47:42.959Z,91.10
2017-10-11T08:50:12.215Z,90.90
2017-10-11T08:52:41.619Z,91.10
2017-10-11T08:55:11.058Z,91.20
2017-10-11T08:57:40.326Z,90.80
2017-10-11T09:00:09.720Z,90.20
2017-10-11T09:02:38.997Z,90.20
2017-10-11T09:05:08.280Z,90.20
2017-10-11T09:07:37.551Z,90.20
2017-10-11T09:10:06.858Z,89.90
2017-10-11T09:12:36.222Z,88.20
2017-10-11T09:15:05.527Z,88.40
2017-10-11T09:17:35.557Z,87.30
2017-10-11T09:20:04.802Z,87.20
2017-10-11T09:22:34.089Z,86.00
2017-10-11T09:25:03.326Z,85.40
2017-10-11T09:27:32.578Z,86.30
2017-10-11T09:30:01.869Z,84.60
2017-10-11T09:32:31.119Z,84.00
2017-10-11T09:35:00.453Z,83.40
2017-10-11T09:37:29.730Z,81.50
2017-10-11T09:39:58.980Z,80.20
2017-10-11T09:42:28.475Z,79.70
2017-10-11T09:44:57.854Z,76.50
2017-10-11T09:47:27.265Z,74.60
2017-10-11T09:49:57.394Z,70.80
2017-10-11T09:52:27.410Z,69.50
2017-10-11T09:54:56.698Z,69.40
2017-10-11T09:57:25.980Z,70.50
2017-10-11T09:59:55.204Z,71.00
2017-10-11T10:02:25.247Z,71.50
2017-10-11T10:04:54.642Z,71.00
2017-10-11T10:07:24.642Z,71.90
2017-10-11T10:09:53.974Z,71.80
2017-10-11T10:12:23.179Z,72.30
2017-10-11T10:14:52.422Z,71.30
2017-10-11T10:17:21.681Z,69.30
2017-10-11T10:19:50.933Z,68.20
2017-10-11T10:22:21.732Z,65.10
2017-10-11T10:24:51.053Z,65.10
2017-10-11T10:27:20.351Z,65.20
2017-10-11T10:29:49.593Z,60.40
2017-10-11T10:32:18.839Z,58.10
2017-10-11T10:34:48.117Z,54.40
2017-10-11T10:37:17.354Z,50.90
2017-10-11T10:39:46.726Z,49.50
2017-10-11T10:42:15.994Z,46.40
2017-10-11T10:44:46.121Z,44.40
2017-10-11T10:47:16.259Z,43.70
2017-10-11T10:49:45.568Z,43.60
2017-10-11T10:52:14.767Z,41.10
2017-10-11T10:54:44.051Z,40.00
2017-10-11T10:57:14.061Z,42.60
2017-10-11T10:59:44.089Z,42.10
2017-10-11T11:02:14.122Z,43.40
2017-10-11T11:04:43.379Z,43.40
2017-10-11T11:07:12.695Z,44.70
2017-10-11T11:09:42.039Z,41.40
2017-10-11T11:12:11.302Z,41.10
2017-10-11T11:14:41.319Z,39.70
2017-10-11T11:17:10.729Z,39.60
2017-10-11T11:19:40.755Z,40.70
2017-10-11T11:22:09.994Z,40.60
2017-10-11T11:24:39.271Z,42.40
2017-10-11T11:27:08.528Z,42.70
2017-10-11T11:29:37.787Z,44.30
2017-10-11T11:32:07.051Z,48.80
2017-10-11T11:34:36.338Z,51.00
2017-10-11T11:37:05.597Z,51.70
2017-10-11T11:39:34.855Z,51.80
2017-10-11T11:42:04.887Z,55.30
2017-10-11T11:44:34.130Z,55.20
2017-10-11T11:47:03.576Z,57.60
2017-10-11T11:49:33.587Z,58.80
2017-10-11T11:52:02.837Z,58.70
2017-10-11T11:54:33.106Z,60.30
2017-10-11T11:57:02.367Z,61.30
2017-10-11T11:59:31.716Z,62.00
2017-10-11T12:02:01.727Z,62.60
2017-10-11T12:04:31.116Z,62.60
2017-10-11T12:07:00.247Z,63.20
2017-10-11T12:09:30.263Z,64.80
2017-10-11T12:11:59.515Z,64.80
2017-10-11T12:14:29.470Z,65.60
2017-10-11T12:16:58.974Z,65.80
2017-10-11T12:19:28.193Z,65.60
2017-10-11T12:21:57.438Z,67.60
2017-10-11T12:24:27.436Z,65.30
2017-10-11T12:26:56.890Z,67.00
2017-10-11T12:29:26.918Z,67.10
2017-10-11T12:31:56.314Z,67.20
2017-10-11T12:34:26.326Z,65.00
2017-10-11T12:36:55.571Z,65.00
2017-10-11T12:39:24.846Z,65.10
2017-10-11T12:41:54.934Z,66.60
2017-10-11T12:44:24.187Z,66.60
2017-10-11T12:46:53.470Z,67.60
2017-10-11T12:49:22.883Z,64.80
2017-10-11T12:51:52.926Z,66.90
2017-10-11T12:54:22.168Z,66.90
2017-10-11T12:56:51.552Z,67.70
2017-10-11T12:59:20.861Z,68.10
2017-10-11T13:01:50.107Z,69.10
2017-10-11T13:04:19.399Z,70.90
2017-10-11T13:06:48.805Z,70.80
2017-10-11T13:09:18.827Z,70.40
2017-10-11T13:11:48.065Z,70.40
2017-10-11T13:14:17.474Z,70.60
2017-10-11T13:16:46.724Z,70.50
2017-10-11T13:19:15.998Z,72.70
2017-10-11T13:21:45.448Z,71.20
2017-10-11T13:24:15.602Z,72.60
2017-10-11T13:26:44.951Z,72.60
2017-10-11T13:29:14.194Z,73.30
2017-10-11T13:31:43.455Z,73.90
2017-10-11T13:34:15.016Z,73.60
2017-10-11T13:36:44.211Z,73.60
2017-10-11T13:39:13.526Z,74.20
2017-10-11T13:41:42.926Z,74.40
2017-10-11T13:44:12.227Z,74.90
2017-10-11T13:46:41.785Z,74.90
2017-10-11T13:49:11.033Z,75.20
2017-10-11T13:51:41.031Z,74.80
2017-10-11T13:54:10.450Z,74.80
2017-10-11T13:56:40.439Z,75.60
2017-10-11T13:59:11.279Z,76.00
2017-10-11T14:01:40.822Z,76.00
2017-10-11T14:04:10.065Z,75.30
2017-10-11T14:06:39.340Z,75.30
2017-10-11T14:09:08.578Z,75.10
2017-10-11T14:11:37.858Z,75.30
2017-10-11T14:14:07.095Z,75.60
2017-10-11T14:16:37.147Z,76.50
2017-10-11T14:19:06.393Z,76.30
2017-10-11T14:21:35.637Z,75.60
2017-10-11T14:24:05.742Z,75.30
2017-10-11T14:26:35.830Z,75.00
2017-10-11T14:29:05.070Z,75.00
2017-10-11T14:31:34.336Z,75.50
2017-10-11T14:34:03.588Z,75.60
2017-10-11T14:36:32.878Z,75.60
2017-10-11T14:39:02.884Z,75.50
2017-10-11T14:41:32.140Z,75.40
2017-10-11T14:44:02.201Z,75.60
2017-10-11T14:46:32.789Z,76.10
2017-10-11T14:49:02.120Z,75.90
2017-10-11T14:51:31.358Z,76.20
2017-10-11T14:54:00.702Z,76.40
2017-10-11T14:56:30.004Z,76.10
2017-10-11T14:59:00.105Z,76.60
2017-10-11T15:01:29.357Z,76.30
2017-10-11T15:03:59.391Z,77.60
2017-10-11T15:06:28.655Z,77.50
2017-10-11T15:08:57.924Z,77.00
2017-10-11T15:11:27.170Z,77.80
2017-10-11T15:13:57.220Z,76.20
2017-10-11T15:16:26.485Z,76.10
2017-10-11T15:18:55.736Z,76.80
2017-10-11T15:21:25.016Z,77.00
2017-10-11T15:23:55.033Z,76.90
2017-10-11T15:26:24.280Z,76.90
2017-10-11T15:28:53.543Z,78.80
2017-10-11T15:31:22.784Z,78.00
2017-10-11T15:33:52.043Z,80.10
2017-10-11T15:36:21.450Z,81.30
2017-10-11T15:38:51.433Z,83.70
2017-10-11T15:41:20.699Z,83.60
2017-10-11T15:43:50.139Z,84.90
2017-10-11T15:46:19.610Z,85.40
2017-10-11T15:48:48.894Z,86.60
2017-10-11T15:51:18.330Z,87.70
2017-10-11T15:53:47.575Z,89.00
2017-10-11T15:56:17.646Z,90.30
2017-10-11T15:58:47.047Z,90.20
2017-10-11T16:01:16.477Z,90.40
2017-10-11T16:03:46.552Z,91.30
2017-10-11T16:06:15.983Z,91.30
2017-10-11T16:08:45.250Z,91.60
2017-10-11T16:11:14.550Z,92.10
2017-10-11T16:13:44.265Z,91.90
2017-10-11T16:16:13.504Z,92.20
2017-10-11T16:18:42.752Z,92.60
2017-10-11T16:21:12.030Z,92.70
2017-10-11T16:23:41.450Z,92.80
2017-10-11T16:26:10.760Z,93.00
2017-10-11T16:28:40.050Z,93.20
2017-10-11T16:31:09.322Z,93.30
2017-10-11T16:33:38.570Z,93.20
2017-10-11T16:36:07.851Z,93.20
2017-10-11T16:38:37.099Z,93.40
2017-10-11T16:41:06.353Z,93.40
2017-10-11T16:43:35.737Z,93.70
2017-10-11T16:46:06.502Z,94.00
2017-10-11T16:48:35.799Z,94.00
2017-10-11T16:51:05.050Z,94.20
2017-10-11T16:53:34.329Z,94.20
2017-10-11T16:56:03.598Z,94.30
2017-10-11T16:58:32.853Z,94.20
2017-10-11T17:01:02.269Z,94.40
2017-10-11T17:03:31.812Z,94.40
2017-10-11T17:06:01.107Z,94.50
2017-10-11T17:08:30.355Z,94.50
2017-10-11T17:10:59.665Z,94.70
2017-10-11T17:13:28.917Z,94.90
2017-10-11T17:15:58.313Z,94.80
2017-10-11T17:18:27.549Z,95.00
2017-10-11T17:20:56.874Z,95.00
2017-10-11T17:23:26.354Z,95.20
2017-10-11T17:25:55.634Z,95.30
2017-10-11T17:28:24.894Z,95.40
2017-10-11T17:30:54.911Z,95.20
2017-10-11T17:33:24.190Z,95.20
2017-10-11T17:35:53.430Z,95.30
2017-10-11T17:38:23.467Z,95.30
2017-10-11T17:40:52.738Z,95.30
2017-10-11T17:43:22.015Z,95.10
2017-10-11T17:45:51.339Z,95.20
2017-10-11T17:48:20.799Z,95.20
2017-10-11T17:50:50.048Z,95.30
2017-10-11T17:53:20.132Z,95.30
2017-10-11T17:55:49.394Z,95.20
2017-10-11T17:58:18.692Z,95.30
2017-10-11T18:00:47.956Z,95.30
2017-10-11T18:03:17.197Z,95.40
2017-10-11T18:05:47.202Z,95.40
2017-10-11T18:08:16.463Z,95.40
2017-10-11T18:10:45.783Z,95.50
2017-10-11T18:13:15.214Z,95.60
2017-10-11T18:15:45.246Z,95.90
2017-10-11T18:18:14.519Z,95.90
2017-10-11T18:20:43.773Z,96.30
2017-10-11T18:23:13.122Z,96.70
2017-10-11T18:25:43.132Z,97.00
2017-10-11T18:28:12.475Z,97.00
2017-10-11T18:30:41.713Z,97.20
2017-10-11T18:33:11.061Z,97.30
2017-10-11T18:35:41.829Z,97.60
2017-10-11T18:38:11.103Z,97.60
2017-10-11T18:40:40.374Z,97.60
2017-10-11T18:43:09.662Z,97.60
2017-10-11T18:45:38.972Z,97.60
2017-10-11T18:48:08.224Z,97.60
2017-10-11T18:50:37.474Z,97.50
2017-10-11T18:53:06.781Z,97.40
2017-10-11T18:55:36.052Z,97.30
2017-10-11T18:58:05.354Z,97.20
2017-10-11T19:00:34.676Z,97.20
2017-10-11T19:03:03.972Z,97.10
2017-10-11T19:05:34.030Z,97.20
2017-10-11T19:08:04.077Z,97.20
2017-10-11T19:10:33.308Z,97.10
2017-10-11T19:13:02.586Z,97.20
2017-10-11T19:15:31.848Z,97.20
2017-10-11T19:18:01.998Z,97.30
2017-10-11T19:20:31.354Z,97.30
2017-10-11T19:23:00.763Z,97.30
2017-10-11T19:25:30.059Z,97.30
2017-10-11T19:28:00.101Z,97.60
2017-10-11T19:30:29.394Z,97.60
2017-10-11T19:32:58.671Z,97.40
2017-10-11T19:35:28.685Z,97.70
2017-10-11T19:37:57.946Z,97.60
2017-10-11T19:40:27.204Z,97.70
2017-10-11T19:42:56.490Z,97.70
2017-10-11T19:45:25.783Z,97.90
2017-10-11T19:47:55.111Z,97.90
2017-10-11T19:50:24.355Z,97.90
2017-10-11T19:52:53.667Z,98.00
2017-10-11T19:55:22.919Z,98.10
2017-10-11T19:57:52.964Z,98.50
2017-10-11T20:03:20.469Z,98.40
2017-10-11T20:05:49.722Z,98.50
2017-10-11T20:08:18.971Z,98.30
2017-10-11T20:10:48.239Z,98.10
2017-10-11T20:13:17.510Z,98.10
2017-10-11T20:15:46.768Z,98.10
2017-10-11T20:18:16.026Z,97.90
2017-10-11T20:20:45.275Z,98.00
2017-10-11T20:23:14.724Z,98.00
2017-10-11T20:25:44.010Z,97.90
2017-10-11T20:28:14.021Z,97.90
2017-10-11T20:30:43.277Z,97.90
2017-10-11T20:33:12.542Z,97.90
2017-10-11T20:35:41.795Z,97.90
2017-10-11T20:38:11.041Z,97.90
2017-10-11T20:40:41.078Z,98.10
2017-10-11T20:43:10.317Z,98.00
2017-10-11T20:45:39.570Z,97.80
2017-10-11T20:48:09.751Z,97.70
2017-10-11T20:50:38.992Z,97.70
2017-10-11T20:53:08.279Z,97.70
2017-10-11T20:55:38.290Z,97.90
2017-10-11T20:58:07.533Z,97.60
2017-10-11T21:00:36.798Z,97.60
2017-10-11T21:03:06.805Z,97.70
2017-10-11T21:05:36.219Z,97.60
2017-10-11T21:08:06.329Z,97.50
2017-10-11T21:10:35.643Z,97.50
2017-10-11T21:13:05.684Z,97.30
2017-10-11T21:15:34.952Z,97.30
2017-10-11T21:18:05.742Z,97.20
2017-10-11T21:20:35.011Z,97.20
2017-10-11T21:23:04.301Z,97.10
2017-10-11T21:25:33.683Z,97.10
2017-10-11T21:28:02.919Z,97.10
2017-10-11T21:30:32.192Z,96.90
2017-10-11T21:33:02.207Z,97.10
2017-10-11T21:35:31.486Z,97.10
2017-10-11T21:38:00.786Z,97.20
2017-10-11T21:40:30.028Z,97.30
2017-10-11T21:42:59.420Z,97.40
2017-10-11T21:45:28.687Z,97.50
2017-10-11T21:47:58.231Z,97.60
2017-10-11T21:50:28.258Z,97.60
2017-10-11T21:52:57.491Z,97.60
2017-10-11T21:55:27.457Z,97.60
2017-10-11T21:57:56.710Z,97.70
2017-10-11T22:00:25.960Z,97.60
2017-10-11T22:02:55.252Z,97.60
2017-10-11T22:05:24.562Z,97.80
2017-10-11T22:07:53.810Z,97.80
2017-10-11T22:10:23.292Z,97.70
2017-10-11T22:12:52.706Z,98.10
2017-10-11T22:15:21.989Z,97.90
2017-10-11T22:17:52.008Z,98.60
2017-10-11T22:20:21.298Z,98.50
2017-10-11T22:22:50.575Z,98.60
2017-10-11T22:25:19.999Z,98.50
2017-10-11T22:27:49.303Z,98.60
2017-10-11T22:30:18.534Z,98.60
2017-10-11T22:32:47.823Z,98.30
2017-10-11T22:35:17.097Z,98.60
2017-10-11T22:37:46.342Z,98.60
2017-10-11T22:40:15.638Z,98.40
2017-10-11T22:42:44.908Z,98.40
2017-10-11T22:45:14.187Z,98.40
2017-10-11T22:47:43.431Z,98.70
2017-10-11T22:50:12.710Z,98.50
2017-10-11T22:52:41.946Z,98.50
2017-10-11T22:55:11.482Z,98.40
2017-10-11T22:57:40.740Z,98.30
2017-10-11T23:00:10.767Z,98.60
2017-10-11T23:02:40.021Z,98.50
2017-10-11T23:05:09.261Z,98.50
2017-10-11T23:07:38.557Z,98.30
2017-10-11T23:10:08.722Z,98.30
2017-10-11T23:12:38.159Z,98.40
2017-10-11T23:15:07.429Z,98.50
2017-10-11T23:17:36.768Z,98.50
2017-10-11T23:20:06.886Z,98.20
2017-10-11T23:22:36.142Z,98.40
2017-10-11T23:25:05.527Z,98.50
2017-10-11T23:27:34.809Z,98.40
2017-10-11T23:30:04.806Z,98.20
2017-10-11T23:32:34.073Z,98.20
2017-10-11T23:35:03.351Z,98.30
2017-10-11T23:37:32.607Z,98.40
2017-10-11T23:40:01.880Z,98.60
2017-10-11T23:42:31.139Z,98.60
2017-10-11T23:45:00.551Z,98.60
2017-10-11T23:47:29.789Z,98.50
2017-10-11T23:49:59.300Z,98.50
2017-10-11T23:52:28.585Z,98.50
2017-10-11T23:54:57.830Z,98.40
2017-10-11T23:57:27.228Z,98.40
2017-10-11T23:59:56.538Z,98.30
